createdAt,value
2023-02-04T00:05:31.845Z,-0.60
2023-02-04T00:35:37.392Z,-0.50
2023-02-04T01:01:23.225Z,-0.60
2023-02-04T01:26:48.047Z,-0.60
2023-02-04T01:56:39.774Z,-0.50
2023-02-04T02:17:22.726Z,-0.50
2023-02-04T02:42:52.702Z,-0.50
2023-02-04T03:23:27.725Z,-0.40
2023-02-04T03:27:51.612Z,-0.40
2023-02-04T03:43:49.839Z,-0.40
2023-02-04T03:48:09.175Z,-0.30
2023-02-04T04:09:20.459Z,-0.70
2023-02-04T04:54:34.743Z,-0.90
2023-02-04T05:25:12.157Z,-0.60
2023-02-04T05:54:59.426Z,-0.40
2023-02-04T06:15:55.662Z,-0.40
2023-02-04T06:40:44.953Z,-0.60
2023-02-04T07:06:30.676Z,-1.10
2023-02-04T07:26:32.651Z,-1.10
2023-02-04T08:06:45.230Z,-1.00
2023-02-04T08:27:40.769Z,-0.90
2023-02-04T08:58:08.038Z,-0.90
2023-02-04T09:22:55.190Z,-0.70
2023-02-04T09:48:41.219Z,-0.50
2023-02-04T10:29:28.267Z,-0.20
2023-02-04T10:33:47.594Z,-0.20
2023-02-04T10:54:37.506Z,0.50
2023-02-04T11:19:53.593Z,0.70
2023-02-04T12:00:49.494Z,0.90
2023-02-04T12:05:05.976Z,0.90
2023-02-04T12:45:50.071Z,0.60
2023-02-04T13:16:09.271Z,0.60
2023-02-04T13:36:51.566Z,0.60
2023-02-04T14:07:13.884Z,0.30
2023-02-04T15:28:17.227Z,-1.10
2023-02-04T15:53:48.603Z,-1.10
2023-02-04T16:38:55.944Z,-1.20
2023-02-04T16:59:29.238Z,-1.50
2023-02-04T17:19:51.222Z,-1.60
2023-02-04T17:44:53.377Z,-1.40
2023-02-04T18:10:18.408Z,-1.60
2023-02-04T18:30:35.139Z,-1.20
2023-02-04T18:40:51.149Z,-1.30
2023-02-04T19:05:53.175Z,-1.40
2023-02-04T19:36:28.598Z,-1.50
2023-02-04T20:01:38.285Z,-1.80
2023-02-04T20:16:42.431Z,-1.70
2023-02-04T21:07:35.465Z,-2.20
2023-02-04T21:33:17.507Z,-2.80
